sensor_id;sensor_type;location;lat;lon;timestamp;P1;durP1;ratioP1;P2;durP2;ratioP2
75520;SDS011;64102;48.628;9.002;2023-06-14T00:00:10;4.73;;;0.47;;
75520;SDS011;64102;48.628;9.002;2023-06-14T00:02:38;6.10;;;0.50;;
75520;SDS011;64102;48.628;9.002;2023-06-14T00:05:04;5.80;;;0.50;;
75520;SDS011;64102;48.628;9.002;2023-06-14T00:07:38;5.18;;;0.47;;
75520;SDS011;64102;48.628;9.002;2023-06-14T00:12:33;6.93;;;0.60;;
75520;SDS011;64102;48.628;9.002;2023-06-14T00:14:59;5.00;;;0.50;;
75520;SDS011;64102;48.628;9.002;2023-06-14T00:17:26;5.68;;;0.70;;
75520;SDS011;64102;48.628;9.002;2023-06-14T00:19:55;5.78;;;0.60;;
75520;SDS011;64102;48.628;9.002;2023-06-14T00:22:24;6.03;;;0.88;;
75520;SDS011;64102;48.628;9.002;2023-06-14T00:24:50;5.57;;;0.70;;
75520;SDS011;64102;48.628;9.002;2023-06-14T00:27:16;7.35;;;0.85;;
75520;SDS011;64102;48.628;9.002;2023-06-14T00:29:41;4.28;;;0.43;;
75520;SDS011;64102;48.628;9.002;2023-06-14T00:32:07;5.73;;;0.60;;
75520;SDS011;64102;48.628;9.002;2023-06-14T00:34:32;5.28;;;0.43;;
75520;SDS011;64102;48.628;9.002;2023-06-14T00:36:58;6.85;;;0.65;;
75520;SDS011;64102;48.628;9.002;2023-06-14T00:39:24;8.02;;;0.77;;
75520;SDS011;64102;48.628;9.002;2023-06-14T00:41:49;9.40;;;0.60;;
75520;SDS011;64102;48.628;9.002;2023-06-14T00:44:15;6.03;;;0.57;;
75520;SDS011;64102;48.628;9.002;2023-06-14T00:46:42;6.53;;;0.40;;
75520;SDS011;64102;48.628;9.002;2023-06-14T00:49:07;6.43;;;0.70;;
75520;SDS011;64102;48.628;9.002;2023-06-14T00:51:33;6.63;;;0.50;;
75520;SDS011;64102;48.628;9.002;2023-06-14T00:53:59;5.78;;;0.55;;
75520;SDS011;64102;48.628;9.002;2023-06-14T00:56:24;6.93;;;0.70;;
75520;SDS011;64102;48.628;9.002;2023-06-14T00:58:50;6.05;;;0.60;;
75520;SDS011;64102;48.628;9.002;2023-06-14T01:01:16;7.47;;;0.50;;
75520;SDS011;64102;48.628;9.002;2023-06-14T01:03:41;5.43;;;0.60;;
75520;SDS011;64102;48.628;9.002;2023-06-14T01:06:15;6.57;;;0.70;;
75520;SDS011;64102;48.628;9.002;2023-06-14T01:08:54;7.18;;;0.57;;
75520;SDS011;64102;48.628;9.002;2023-06-14T01:14:32;6.03;;;0.52;;
75520;SDS011;64102;48.628;9.002;2023-06-14T01:16:59;6.43;;;0.50;;
75520;SDS011;64102;48.628;9.002;2023-06-14T01:19:26;5.32;;;0.40;;
75520;SDS011;64102;48.628;9.002;2023-06-14T01:21:53;5.03;;;0.60;;
75520;SDS011;64102;48.628;9.002;2023-06-14T01:24:20;6.85;;;0.68;;
75520;SDS011;64102;48.628;9.002;2023-06-14T01:26:51;4.88;;;0.50;;
75520;SDS011;64102;48.628;9.002;2023-06-14T01:29:20;5.78;;;0.63;;
75520;SDS011;64102;48.628;9.002;2023-06-14T01:31:47;6.15;;;0.55;;
75520;SDS011;64102;48.628;9.002;2023-06-14T01:34:14;4.40;;;0.40;;
75520;SDS011;64102;48.628;9.002;2023-06-14T01:36:40;6.38;;;0.80;;
75520;SDS011;64102;48.628;9.002;2023-06-14T01:39:08;5.22;;;0.43;;
75520;SDS011;64102;48.628;9.002;2023-06-14T01:41:39;6.75;;;0.50;;
75520;SDS011;64102;48.628;9.002;2023-06-14T01:44:05;6.78;;;0.60;;
75520;SDS011;64102;48.628;9.002;2023-06-14T01:46:31;9.63;;;0.65;;
75520;SDS011;64102;48.628;9.002;2023-06-14T01:48:57;6.05;;;0.80;;
75520;SDS011;64102;48.628;9.002;2023-06-14T01:51:22;6.85;;;0.70;;
75520;SDS011;64102;48.628;9.002;2023-06-14T01:53:48;4.97;;;0.40;;
75520;SDS011;64102;48.628;9.002;2023-06-14T01:56:13;5.05;;;0.40;;
75520;SDS011;64102;48.628;9.002;2023-06-14T01:58:39;4.75;;;0.50;;
75520;SDS011;64102;48.628;9.002;2023-06-14T02:01:05;8.90;;;0.60;;
75520;SDS011;64102;48.628;9.002;2023-06-14T02:03:31;5.38;;;0.50;;
75520;SDS011;64102;48.628;9.002;2023-06-14T02:05:57;6.72;;;0.60;;
75520;SDS011;64102;48.628;9.002;2023-06-14T02:08:23;5.55;;;0.55;;
75520;SDS011;64102;48.628;9.002;2023-06-14T02:10:48;4.85;;;0.38;;
75520;SDS011;64102;48.628;9.002;2023-06-14T02:13:14;5.53;;;0.60;;
75520;SDS011;64102;48.628;9.002;2023-06-14T02:15:39;5.85;;;0.60;;
75520;SDS011;64102;48.628;9.002;2023-06-14T02:18:05;8.32;;;0.65;;
75520;SDS011;64102;48.628;9.002;2023-06-14T02:20:30;5.47;;;0.50;;
75520;SDS011;64102;48.628;9.002;2023-06-14T02:22:56;5.80;;;0.63;;
75520;SDS011;64102;48.628;9.002;2023-06-14T02:25:22;5.60;;;0.60;;
75520;SDS011;64102;48.628;9.002;2023-06-14T02:27:47;7.95;;;0.80;;
75520;SDS011;64102;48.628;9.002;2023-06-14T02:30:12;7.20;;;0.67;;
75520;SDS011;64102;48.628;9.002;2023-06-14T02:32:38;6.18;;;0.75;;
75520;SDS011;64102;48.628;9.002;2023-06-14T02:35:05;5.75;;;0.60;;
75520;SDS011;64102;48.628;9.002;2023-06-14T02:37:31;6.72;;;0.60;;
75520;SDS011;64102;48.628;9.002;2023-06-14T02:39:56;5.97;;;0.67;;
75520;SDS011;64102;48.628;9.002;2023-06-14T02:42:22;6.95;;;0.73;;
75520;SDS011;64102;48.628;9.002;2023-06-14T02:44:47;5.47;;;0.60;;
75520;SDS011;64102;48.628;9.002;2023-06-14T02:47:16;7.32;;;0.70;;
75520;SDS011;64102;48.628;9.002;2023-06-14T02:49:42;6.07;;;0.52;;
75520;SDS011;64102;48.628;9.002;2023-06-14T02:52:08;4.55;;;0.50;;
75520;SDS011;64102;48.628;9.002;2023-06-14T02:54:34;5.65;;;0.70;;
75520;SDS011;64102;48.628;9.002;2023-06-14T02:56:59;5.60;;;0.68;;
75520;SDS011;64102;48.628;9.002;2023-06-14T02:59:24;6.68;;;0.88;;
75520;SDS011;64102;48.628;9.002;2023-06-14T03:01:50;6.07;;;0.50;;
75520;SDS011;64102;48.628;9.002;2023-06-14T03:04:15;7.70;;;0.83;;
75520;SDS011;64102;48.628;9.002;2023-06-14T03:06:41;5.97;;;0.57;;
75520;SDS011;64102;48.628;9.002;2023-06-14T03:09:09;6.10;;;0.50;;
75520;SDS011;64102;48.628;9.002;2023-06-14T03:11:34;5.78;;;0.40;;
75520;SDS011;64102;48.628;9.002;2023-06-14T03:14:00;6.20;;;0.70;;
75520;SDS011;64102;48.628;9.002;2023-06-14T03:16:28;7.50;;;0.70;;
75520;SDS011;64102;48.628;9.002;2023-06-14T03:18:55;6.90;;;0.82;;
75520;SDS011;64102;48.628;9.002;2023-06-14T03:21:20;4.28;;;0.50;;
75520;SDS011;64102;48.628;9.002;2023-06-14T03:23:46;6.53;;;0.75;;
75520;SDS011;64102;48.628;9.002;2023-06-14T03:26:12;7.10;;;0.90;;
75520;SDS011;64102;48.628;9.002;2023-06-14T03:28:39;6.13;;;0.60;;
75520;SDS011;64102;48.628;9.002;2023-06-14T03:31:04;6.55;;;0.52;;
75520;SDS011;64102;48.628;9.002;2023-06-14T03:33:30;5.37;;;0.50;;
75520;SDS011;64102;48.628;9.002;2023-06-14T03:35:55;7.07;;;0.70;;
75520;SDS011;64102;48.628;9.002;2023-06-14T03:38:21;8.18;;;0.80;;
75520;SDS011;64102;48.628;9.002;2023-06-14T03:40:47;6.07;;;0.50;;
75520;SDS011;64102;48.628;9.002;2023-06-14T03:43:12;8.90;;;1.10;;
75520;SDS011;64102;48.628;9.002;2023-06-14T03:45:38;5.68;;;0.55;;
75520;SDS011;64102;48.628;9.002;2023-06-14T03:48:03;6.70;;;0.70;;
75520;SDS011;64102;48.628;9.002;2023-06-14T03:50:31;7.68;;;0.70;;
75520;SDS011;64102;48.628;9.002;2023-06-14T03:52:57;5.40;;;0.70;;
75520;SDS011;64102;48.628;9.002;2023-06-14T03:55:22;6.90;;;0.80;;
75520;SDS011;64102;48.628;9.002;2023-06-14T03:57:50;8.80;;;0.90;;
75520;SDS011;64102;48.628;9.002;2023-06-14T04:00:16;8.02;;;0.77;;
75520;SDS011;64102;48.628;9.002;2023-06-14T04:02:41;8.23;;;1.02;;
75520;SDS011;64102;48.628;9.002;2023-06-14T04:05:09;7.55;;;1.05;;
75520;SDS011;64102;48.628;9.002;2023-06-14T04:07:34;7.28;;;0.60;;
75520;SDS011;64102;48.628;9.002;2023-06-14T04:10:05;6.03;;;0.60;;
75520;SDS011;64102;48.628;9.002;2023-06-14T04:12:32;8.05;;;0.95;;
75520;SDS011;64102;48.628;9.002;2023-06-14T04:14:57;6.93;;;0.70;;
75520;SDS011;64102;48.628;9.002;2023-06-14T04:17:22;6.20;;;0.73;;
75520;SDS011;64102;48.628;9.002;2023-06-14T04:19:48;5.20;;;0.50;;
75520;SDS011;64102;48.628;9.002;2023-06-14T04:22:13;6.60;;;0.87;;
75520;SDS011;64102;48.628;9.002;2023-06-14T04:24:38;6.00;;;0.60;;
75520;SDS011;64102;48.628;9.002;2023-06-14T04:27:04;5.93;;;0.70;;
75520;SDS011;64102;48.628;9.002;2023-06-14T04:29:29;6.40;;;0.70;;
75520;SDS011;64102;48.628;9.002;2023-06-14T04:31:56;6.97;;;0.77;;
75520;SDS011;64102;48.628;9.002;2023-06-14T04:34:27;7.15;;;0.77;;
75520;SDS011;64102;48.628;9.002;2023-06-14T04:36:57;8.45;;;2.25;;
75520;SDS011;64102;48.628;9.002;2023-06-14T04:39:24;10.23;;;0.90;;
75520;SDS011;64102;48.628;9.002;2023-06-14T04:41:51;7.57;;;0.93;;
75520;SDS011;64102;48.628;9.002;2023-06-14T04:44:18;8.45;;;0.95;;
75520;SDS011;64102;48.628;9.002;2023-06-14T04:46:44;11.00;;;1.10;;
75520;SDS011;64102;48.628;9.002;2023-06-14T04:49:13;6.47;;;0.68;;
75520;SDS011;64102;48.628;9.002;2023-06-14T04:51:40;6.00;;;1.20;;
75520;SDS011;64102;48.628;9.002;2023-06-14T04:54:07;7.20;;;0.93;;
75520;SDS011;64102;48.628;9.002;2023-06-14T04:56:35;6.65;;;0.80;;
75520;SDS011;64102;48.628;9.002;2023-06-14T04:59:02;8.63;;;0.95;;
75520;SDS011;64102;48.628;9.002;2023-06-14T05:01:29;7.07;;;0.90;;
75520;SDS011;64102;48.628;9.002;2023-06-14T05:03:56;8.05;;;0.95;;
75520;SDS011;64102;48.628;9.002;2023-06-14T05:06:21;7.70;;;0.90;;
75520;SDS011;64102;48.628;9.002;2023-06-14T05:08:47;7.00;;;0.93;;
75520;SDS011;64102;48.628;9.002;2023-06-14T05:11:12;11.43;;;0.70;;
75520;SDS011;64102;48.628;9.002;2023-06-14T05:13:38;7.82;;;0.77;;
75520;SDS011;64102;48.628;9.002;2023-06-14T05:16:04;8.93;;;1.55;;
75520;SDS011;64102;48.628;9.002;2023-06-14T05:18:31;7.25;;;1.08;;
75520;SDS011;64102;48.628;9.002;2023-06-14T05:20:59;6.40;;;0.77;;
75520;SDS011;64102;48.628;9.002;2023-06-14T05:23:24;8.10;;;1.08;;
75520;SDS011;64102;48.628;9.002;2023-06-14T05:25:50;8.80;;;0.95;;
75520;SDS011;64102;48.628;9.002;2023-06-14T05:28:15;6.20;;;0.90;;
75520;SDS011;64102;48.628;9.002;2023-06-14T05:30:41;9.13;;;1.02;;
75520;SDS011;64102;48.628;9.002;2023-06-14T05:33:06;5.95;;;0.80;;
75520;SDS011;64102;48.628;9.002;2023-06-14T05:35:32;7.10;;;0.88;;
75520;SDS011;64102;48.628;9.002;2023-06-14T05:37:57;9.70;;;1.03;;
75520;SDS011;64102;48.628;9.002;2023-06-14T05:40:23;7.30;;;1.10;;
75520;SDS011;64102;48.628;9.002;2023-06-14T05:42:48;7.85;;;1.15;;
75520;SDS011;64102;48.628;9.002;2023-06-14T05:45:13;8.23;;;0.80;;
75520;SDS011;64102;48.628;9.002;2023-06-14T05:47:40;7.80;;;1.17;;
75520;SDS011;64102;48.628;9.002;2023-06-14T05:50:06;7.03;;;1.00;;
75520;SDS011;64102;48.628;9.002;2023-06-14T05:52:32;8.68;;;0.98;;
75520;SDS011;64102;48.628;9.002;2023-06-14T05:54:59;8.13;;;1.00;;
75520;SDS011;64102;48.628;9.002;2023-06-14T05:57:25;6.78;;;1.00;;
75520;SDS011;64102;48.628;9.002;2023-06-14T05:59:50;7.00;;;0.73;;
75520;SDS011;64102;48.628;9.002;2023-06-14T06:02:16;7.25;;;1.25;;
75520;SDS011;64102;48.628;9.002;2023-06-14T06:04:41;7.30;;;1.20;;
75520;SDS011;64102;48.628;9.002;2023-06-14T06:07:07;6.43;;;1.27;;
75520;SDS011;64102;48.628;9.002;2023-06-14T06:09:32;6.30;;;1.07;;
75520;SDS011;64102;48.628;9.002;2023-06-14T06:11:58;5.85;;;0.90;;
75520;SDS011;64102;48.628;9.002;2023-06-14T06:14:23;6.70;;;1.20;;
75520;SDS011;64102;48.628;9.002;2023-06-14T06:16:49;7.70;;;1.20;;
75520;SDS011;64102;48.628;9.002;2023-06-14T06:19:14;6.03;;;1.10;;
75520;SDS011;64102;48.628;9.002;2023-06-14T06:21:40;5.53;;;0.75;;
75520;SDS011;64102;48.628;9.002;2023-06-14T06:24:05;7.30;;;1.08;;
75520;SDS011;64102;48.628;9.002;2023-06-14T06:26:31;7.75;;;1.38;;
75520;SDS011;64102;48.628;9.002;2023-06-14T06:28:57;6.18;;;1.40;;
75520;SDS011;64102;48.628;9.002;2023-06-14T06:31:24;6.90;;;1.15;;
75520;SDS011;64102;48.628;9.002;2023-06-14T06:33:50;7.78;;;0.75;;
75520;SDS011;64102;48.628;9.002;2023-06-14T06:36:16;6.07;;;0.95;;
75520;SDS011;64102;48.628;9.002;2023-06-14T06:38:41;7.75;;;1.35;;
75520;SDS011;64102;48.628;9.002;2023-06-14T06:41:07;6.68;;;1.15;;
75520;SDS011;64102;48.628;9.002;2023-06-14T06:43:32;9.15;;;1.13;;
75520;SDS011;64102;48.628;9.002;2023-06-14T06:45:57;6.70;;;1.10;;
75520;SDS011;64102;48.628;9.002;2023-06-14T06:48:23;7.67;;;1.23;;
75520;SDS011;64102;48.628;9.002;2023-06-14T06:50:48;6.73;;;1.57;;
75520;SDS011;64102;48.628;9.002;2023-06-14T06:53:14;6.47;;;1.73;;
75520;SDS011;64102;48.628;9.002;2023-06-14T06:55:40;5.90;;;1.23;;
75520;SDS011;64102;48.628;9.002;2023-06-14T06:58:05;6.57;;;1.13;;
75520;SDS011;64102;48.628;9.002;2023-06-14T07:00:31;6.38;;;1.45;;
75520;SDS011;64102;48.628;9.002;2023-06-14T07:02:56;5.78;;;1.30;;
75520;SDS011;64102;48.628;9.002;2023-06-14T07:05:22;6.40;;;1.58;;
75520;SDS011;64102;48.628;9.002;2023-06-14T07:07:48;6.32;;;1.45;;
75520;SDS011;64102;48.628;9.002;2023-06-14T07:10:13;7.85;;;1.58;;
75520;SDS011;64102;48.628;9.002;2023-06-14T07:12:39;6.22;;;1.80;;
75520;SDS011;64102;48.628;9.002;2023-06-14T07:15:05;7.57;;;1.25;;
75520;SDS011;64102;48.628;9.002;2023-06-14T07:17:34;6.18;;;1.20;;
75520;SDS011;64102;48.628;9.002;2023-06-14T07:20:00;7.50;;;1.42;;
75520;SDS011;64102;48.628;9.002;2023-06-14T07:22:40;6.75;;;1.23;;
75520;SDS011;64102;48.628;9.002;2023-06-14T07:25:06;9.07;;;2.15;;
75520;SDS011;64102;48.628;9.002;2023-06-14T07:27:38;7.43;;;2.30;;
75520;SDS011;64102;48.628;9.002;2023-06-14T07:30:05;6.50;;;1.25;;
75520;SDS011;64102;48.628;9.002;2023-06-14T07:32:31;6.95;;;1.77;;
75520;SDS011;64102;48.628;9.002;2023-06-14T07:34:57;6.87;;;1.67;;
75520;SDS011;64102;48.628;9.002;2023-06-14T07:37:22;7.53;;;1.88;;
75520;SDS011;64102;48.628;9.002;2023-06-14T07:39:47;8.10;;;1.37;;
75520;SDS011;64102;48.628;9.002;2023-06-14T07:42:13;7.77;;;3.13;;
75520;SDS011;64102;48.628;9.002;2023-06-14T07:44:38;6.90;;;1.97;;
75520;SDS011;64102;48.628;9.002;2023-06-14T07:47:03;7.17;;;2.03;;
75520;SDS011;64102;48.628;9.002;2023-06-14T07:49:29;6.47;;;1.80;;
75520;SDS011;64102;48.628;9.002;2023-06-14T07:51:54;6.13;;;1.87;;
75520;SDS011;64102;48.628;9.002;2023-06-14T07:54:20;7.43;;;1.60;;
75520;SDS011;64102;48.628;9.002;2023-06-14T07:56:49;6.72;;;1.75;;
75520;SDS011;64102;48.628;9.002;2023-06-14T07:59:15;7.63;;;2.35;;
75520;SDS011;64102;48.628;9.002;2023-06-14T08:01:40;7.17;;;1.50;;
75520;SDS011;64102;48.628;9.002;2023-06-14T08:04:11;6.97;;;1.63;;
75520;SDS011;64102;48.628;9.002;2023-06-14T08:06:37;6.38;;;1.58;;
75520;SDS011;64102;48.628;9.002;2023-06-14T08:09:03;6.43;;;1.50;;
75520;SDS011;64102;48.628;9.002;2023-06-14T08:11:28;7.40;;;2.07;;
75520;SDS011;64102;48.628;9.002;2023-06-14T08:13:54;6.78;;;1.48;;
75520;SDS011;64102;48.628;9.002;2023-06-14T08:16:19;5.70;;;1.23;;
75520;SDS011;64102;48.628;9.002;2023-06-14T08:18:44;8.20;;;1.80;;
75520;SDS011;64102;48.628;9.002;2023-06-14T08:21:10;6.47;;;1.33;;
75520;SDS011;64102;48.628;9.002;2023-06-14T08:23:36;6.38;;;1.60;;
75520;SDS011;64102;48.628;9.002;2023-06-14T08:26:01;7.28;;;2.08;;
75520;SDS011;64102;48.628;9.002;2023-06-14T08:28:29;6.97;;;1.33;;
75520;SDS011;64102;48.628;9.002;2023-06-14T08:30:54;6.45;;;1.30;;
75520;SDS011;64102;48.628;9.002;2023-06-14T08:33:20;7.50;;;2.38;;
75520;SDS011;64102;48.628;9.002;2023-06-14T08:35:45;7.10;;;2.25;;
75520;SDS011;64102;48.628;9.002;2023-06-14T08:38:11;7.50;;;1.87;;
75520;SDS011;64102;48.628;9.002;2023-06-14T08:40:36;6.75;;;2.60;;
75520;SDS011;64102;48.628;9.002;2023-06-14T08:43:03;6.68;;;2.28;;
75520;SDS011;64102;48.628;9.002;2023-06-14T08:45:29;5.70;;;2.10;;
75520;SDS011;64102;48.628;9.002;2023-06-14T08:47:54;6.57;;;1.73;;
75520;SDS011;64102;48.628;9.002;2023-06-14T08:52:59;6.35;;;1.95;;
75520;SDS011;64102;48.628;9.002;2023-06-14T08:55:27;6.70;;;2.40;;
75520;SDS011;64102;48.628;9.002;2023-06-14T08:57:55;7.20;;;3.45;;
75520;SDS011;64102;48.628;9.002;2023-06-14T09:00:25;7.18;;;4.10;;
75520;SDS011;64102;48.628;9.002;2023-06-14T09:02:52;7.45;;;3.55;;
75520;SDS011;64102;48.628;9.002;2023-06-14T09:05:26;6.55;;;2.10;;
75520;SDS011;64102;48.628;9.002;2023-06-14T09:07:52;7.20;;;2.22;;
75520;SDS011;64102;48.628;9.002;2023-06-14T09:10:21;7.15;;;2.70;;
75520;SDS011;64102;48.628;9.002;2023-06-14T09:12:47;10.25;;;2.90;;
75520;SDS011;64102;48.628;9.002;2023-06-14T09:15:13;8.00;;;2.30;;
75520;SDS011;64102;48.628;9.002;2023-06-14T09:17:39;8.75;;;3.10;;
75520;SDS011;64102;48.628;9.002;2023-06-14T09:20:05;8.32;;;2.25;;
75520;SDS011;64102;48.628;9.002;2023-06-14T09:22:35;7.35;;;2.83;;
75520;SDS011;64102;48.628;9.002;2023-06-14T09:25:03;7.88;;;3.28;;
75520;SDS011;64102;48.628;9.002;2023-06-14T09:27:30;7.30;;;2.88;;
75520;SDS011;64102;48.628;9.002;2023-06-14T09:29:55;7.10;;;3.15;;
75520;SDS011;64102;48.628;9.002;2023-06-14T09:32:21;8.83;;;4.03;;
75520;SDS011;64102;48.628;9.002;2023-06-14T09:34:47;8.52;;;4.10;;
75520;SDS011;64102;48.628;9.002;2023-06-14T09:37:13;7.70;;;3.65;;
75520;SDS011;64102;48.628;9.002;2023-06-14T09:39:52;8.55;;;3.88;;
75520;SDS011;64102;48.628;9.002;2023-06-14T09:42:17;7.38;;;4.40;;
75520;SDS011;64102;48.628;9.002;2023-06-14T09:44:46;8.68;;;3.75;;
75520;SDS011;64102;48.628;9.002;2023-06-14T09:47:14;8.25;;;3.15;;
75520;SDS011;64102;48.628;9.002;2023-06-14T09:49:40;7.65;;;3.70;;
75520;SDS011;64102;48.628;9.002;2023-06-14T09:52:05;7.57;;;2.97;;
75520;SDS011;64102;48.628;9.002;2023-06-14T09:54:33;9.48;;;4.03;;
75520;SDS011;64102;48.628;9.002;2023-06-14T09:57:05;7.78;;;4.57;;
75520;SDS011;64102;48.628;9.002;2023-06-14T09:59:33;8.40;;;2.63;;
75520;SDS011;64102;48.628;9.002;2023-06-14T10:02:00;9.07;;;2.65;;
75520;SDS011;64102;48.628;9.002;2023-06-14T10:04:34;6.15;;;2.33;;
75520;SDS011;64102;48.628;9.002;2023-06-14T10:07:00;8.18;;;3.70;;
75520;SDS011;64102;48.628;9.002;2023-06-14T10:09:27;9.13;;;2.97;;
75520;SDS011;64102;48.628;9.002;2023-06-14T10:11:53;7.60;;;2.88;;
75520;SDS011;64102;48.628;9.002;2023-06-14T10:14:20;7.85;;;4.32;;
75520;SDS011;64102;48.628;9.002;2023-06-14T10:16:52;7.63;;;3.50;;
75520;SDS011;64102;48.628;9.002;2023-06-14T10:19:28;6.65;;;3.10;;
75520;SDS011;64102;48.628;9.002;2023-06-14T10:24:35;8.82;;;4.22;;
75520;SDS011;64102;48.628;9.002;2023-06-14T10:27:06;9.20;;;6.03;;
75520;SDS011;64102;48.628;9.002;2023-06-14T10:29:35;8.45;;;4.63;;
75520;SDS011;64102;48.628;9.002;2023-06-14T10:32:26;7.53;;;2.45;;
75520;SDS011;64102;48.628;9.002;2023-06-14T10:35:16;8.45;;;2.45;;
75520;SDS011;64102;48.628;9.002;2023-06-14T10:37:41;7.45;;;1.77;;
75520;SDS011;64102;48.628;9.002;2023-06-14T10:40:06;7.30;;;1.83;;
75520;SDS011;64102;48.628;9.002;2023-06-14T10:42:33;6.13;;;1.55;;
75520;SDS011;64102;48.628;9.002;2023-06-14T10:44:59;10.17;;;1.50;;
75520;SDS011;64102;48.628;9.002;2023-06-14T10:49:56;6.00;;;1.73;;
75520;SDS011;64102;48.628;9.002;2023-06-14T10:52:28;6.55;;;1.75;;
75520;SDS011;64102;48.628;9.002;2023-06-14T10:57:34;6.65;;;1.42;;
75520;SDS011;64102;48.628;9.002;2023-06-14T11:00:01;7.78;;;1.98;;
75520;SDS011;64102;48.628;9.002;2023-06-14T11:02:51;7.50;;;2.95;;
75520;SDS011;64102;48.628;9.002;2023-06-14T11:08:17;6.20;;;2.10;;
75520;SDS011;64102;48.628;9.002;2023-06-14T11:11:12;7.20;;;1.60;;
75520;SDS011;64102;48.628;9.002;2023-06-14T11:13:38;6.40;;;1.73;;
75520;SDS011;64102;48.628;9.002;2023-06-14T11:16:12;7.35;;;1.63;;
75520;SDS011;64102;48.628;9.002;2023-06-14T11:18:39;7.97;;;2.90;;
75520;SDS011;64102;48.628;9.002;2023-06-14T11:21:05;7.07;;;2.88;;
75520;SDS011;64102;48.628;9.002;2023-06-14T11:23:31;8.50;;;3.47;;
75520;SDS011;64102;48.628;9.002;2023-06-14T11:25:56;7.20;;;4.17;;
75520;SDS011;64102;48.628;9.002;2023-06-14T11:28:21;7.23;;;2.40;;
75520;SDS011;64102;48.628;9.002;2023-06-14T11:30:48;6.05;;;1.25;;
75520;SDS011;64102;48.628;9.002;2023-06-14T11:33:24;6.15;;;1.23;;
75520;SDS011;64102;48.628;9.002;2023-06-14T11:35:50;7.53;;;1.60;;
75520;SDS011;64102;48.628;9.002;2023-06-14T11:38:16;6.75;;;2.40;;
75520;SDS011;64102;48.628;9.002;2023-06-14T11:40:41;7.05;;;1.95;;
75520;SDS011;64102;48.628;9.002;2023-06-14T11:43:07;6.03;;;1.97;;
75520;SDS011;64102;48.628;9.002;2023-06-14T11:45:32;7.22;;;2.13;;
75520;SDS011;64102;48.628;9.002;2023-06-14T11:47:58;7.70;;;2.03;;
75520;SDS011;64102;48.628;9.002;2023-06-14T11:50:24;7.90;;;4.15;;
75520;SDS011;64102;48.628;9.002;2023-06-14T11:52:56;7.57;;;2.95;;
75520;SDS011;64102;48.628;9.002;2023-06-14T11:55:25;6.20;;;2.55;;
75520;SDS011;64102;48.628;9.002;2023-06-14T11:57:50;7.07;;;2.80;;
75520;SDS011;64102;48.628;9.002;2023-06-14T12:00:18;7.72;;;2.30;;
75520;SDS011;64102;48.628;9.002;2023-06-14T12:02:55;6.60;;;2.75;;
75520;SDS011;64102;48.628;9.002;2023-06-14T12:05:21;6.47;;;1.42;;
75520;SDS011;64102;48.628;9.002;2023-06-14T12:07:48;7.63;;;1.50;;
75520;SDS011;64102;48.628;9.002;2023-06-14T12:10:15;6.03;;;1.42;;
75520;SDS011;64102;48.628;9.002;2023-06-14T12:12:40;6.75;;;1.95;;
75520;SDS011;64102;48.628;9.002;2023-06-14T12:15:07;6.18;;;1.33;;
75520;SDS011;64102;48.628;9.002;2023-06-14T12:17:34;6.40;;;1.60;;
75520;SDS011;64102;48.628;9.002;2023-06-14T12:20:13;6.82;;;1.33;;
75520;SDS011;64102;48.628;9.002;2023-06-14T12:22:53;7.57;;;2.03;;
75520;SDS011;64102;48.628;9.002;2023-06-14T12:27:58;8.15;;;2.38;;
75520;SDS011;64102;48.628;9.002;2023-06-14T12:30:24;7.22;;;2.45;;
75520;SDS011;64102;48.628;9.002;2023-06-14T12:32:49;7.95;;;2.33;;
75520;SDS011;64102;48.628;9.002;2023-06-14T12:35:16;6.30;;;2.05;;
75520;SDS011;64102;48.628;9.002;2023-06-14T12:37:42;8.32;;;3.40;;
75520;SDS011;64102;48.628;9.002;2023-06-14T12:40:08;7.40;;;3.80;;
75520;SDS011;64102;48.628;9.002;2023-06-14T12:42:33;7.32;;;2.88;;
75520;SDS011;64102;48.628;9.002;2023-06-14T12:44:59;7.82;;;5.95;;
75520;SDS011;64102;48.628;9.002;2023-06-14T12:47:25;8.55;;;4.90;;
75520;SDS011;64102;48.628;9.002;2023-06-14T12:49:51;6.78;;;3.53;;
75520;SDS011;64102;48.628;9.002;2023-06-14T12:52:17;7.70;;;3.90;;
75520;SDS011;64102;48.628;9.002;2023-06-14T12:54:42;7.97;;;4.13;;
75520;SDS011;64102;48.628;9.002;2023-06-14T12:57:07;7.32;;;2.75;;
75520;SDS011;64102;48.628;9.002;2023-06-14T12:59:33;6.75;;;2.60;;
75520;SDS011;64102;48.628;9.002;2023-06-14T13:01:59;7.00;;;2.00;;
75520;SDS011;64102;48.628;9.002;2023-06-14T13:04:35;6.90;;;1.63;;
75520;SDS011;64102;48.628;9.002;2023-06-14T13:07:01;6.30;;;1.53;;
75520;SDS011;64102;48.628;9.002;2023-06-14T13:09:26;7.30;;;1.57;;
75520;SDS011;64102;48.628;9.002;2023-06-14T13:11:52;6.38;;;1.50;;
75520;SDS011;64102;48.628;9.002;2023-06-14T13:14:17;5.70;;;2.07;;
75520;SDS011;64102;48.628;9.002;2023-06-14T13:16:42;7.55;;;3.35;;
75520;SDS011;64102;48.628;9.002;2023-06-14T13:19:08;6.87;;;2.53;;
75520;SDS011;64102;48.628;9.002;2023-06-14T13:21:33;7.13;;;3.03;;
75520;SDS011;64102;48.628;9.002;2023-06-14T13:23:58;7.47;;;2.70;;
75520;SDS011;64102;48.628;9.002;2023-06-14T13:26:24;7.07;;;3.80;;
75520;SDS011;64102;48.628;9.002;2023-06-14T13:28:50;7.30;;;2.78;;
75520;SDS011;64102;48.628;9.002;2023-06-14T13:31:16;7.35;;;4.07;;
75520;SDS011;64102;48.628;9.002;2023-06-14T13:33:41;9.40;;;3.30;;
75520;SDS011;64102;48.628;9.002;2023-06-14T13:36:07;7.20;;;1.77;;
75520;SDS011;64102;48.628;9.002;2023-06-14T13:38:32;5.93;;;1.60;;
75520;SDS011;64102;48.628;9.002;2023-06-14T13:40:58;7.47;;;1.90;;
75520;SDS011;64102;48.628;9.002;2023-06-14T13:43:23;7.67;;;1.40;;
75520;SDS011;64102;48.628;9.002;2023-06-14T13:45:48;6.55;;;1.50;;
75520;SDS011;64102;48.628;9.002;2023-06-14T13:48:14;6.55;;;1.13;;
75520;SDS011;64102;48.628;9.002;2023-06-14T13:50:39;5.47;;;0.98;;
75520;SDS011;64102;48.628;9.002;2023-06-14T13:53:05;5.68;;;1.42;;
75520;SDS011;64102;48.628;9.002;2023-06-14T13:55:30;6.30;;;1.27;;
75520;SDS011;64102;48.628;9.002;2023-06-14T13:57:56;8.50;;;1.35;;
75520;SDS011;64102;48.628;9.002;2023-06-14T14:00:21;5.50;;;1.10;;
75520;SDS011;64102;48.628;9.002;2023-06-14T14:02:47;6.10;;;1.00;;
75520;SDS011;64102;48.628;9.002;2023-06-14T14:05:15;5.68;;;0.88;;
75520;SDS011;64102;48.628;9.002;2023-06-14T14:07:41;5.72;;;1.00;;
75520;SDS011;64102;48.628;9.002;2023-06-14T14:10:07;6.25;;;1.20;;
75520;SDS011;64102;48.628;9.002;2023-06-14T14:12:33;7.22;;;1.10;;
75520;SDS011;64102;48.628;9.002;2023-06-14T14:14:58;6.13;;;1.50;;
75520;SDS011;64102;48.628;9.002;2023-06-14T14:17:24;7.15;;;1.42;;
75520;SDS011;64102;48.628;9.002;2023-06-14T14:19:50;6.95;;;1.63;;
75520;SDS011;64102;48.628;9.002;2023-06-14T14:22:15;6.83;;;1.30;;
75520;SDS011;64102;48.628;9.002;2023-06-14T14:24:40;7.53;;;1.50;;
75520;SDS011;64102;48.628;9.002;2023-06-14T14:27:06;6.17;;;1.70;;
75520;SDS011;64102;48.628;9.002;2023-06-14T14:29:32;8.32;;;2.55;;
75520;SDS011;64102;48.628;9.002;2023-06-14T14:31:58;6.75;;;1.75;;
75520;SDS011;64102;48.628;9.002;2023-06-14T14:34:24;7.15;;;1.45;;
75520;SDS011;64102;48.628;9.002;2023-06-14T14:36:50;6.18;;;2.30;;
75520;SDS011;64102;48.628;9.002;2023-06-14T14:39:15;6.45;;;1.48;;
75520;SDS011;64102;48.628;9.002;2023-06-14T14:41:41;6.43;;;2.58;;
75520;SDS011;64102;48.628;9.002;2023-06-14T14:44:06;6.60;;;1.70;;
75520;SDS011;64102;48.628;9.002;2023-06-14T14:46:31;7.47;;;1.98;;
75520;SDS011;64102;48.628;9.002;2023-06-14T14:48:58;6.43;;;1.30;;
75520;SDS011;64102;48.628;9.002;2023-06-14T14:51:24;6.55;;;2.00;;
75520;SDS011;64102;48.628;9.002;2023-06-14T14:53:49;7.00;;;1.50;;
75520;SDS011;64102;48.628;9.002;2023-06-14T14:56:15;6.68;;;1.88;;
75520;SDS011;64102;48.628;9.002;2023-06-14T14:58:40;7.00;;;1.83;;
75520;SDS011;64102;48.628;9.002;2023-06-14T15:01:06;6.07;;;1.45;;
75520;SDS011;64102;48.628;9.002;2023-06-14T15:03:32;7.97;;;1.55;;
75520;SDS011;64102;48.628;9.002;2023-06-14T15:05:57;6.18;;;1.15;;